createdAt,value
2019-02-02T00:01:35.007Z,1.29
2019-02-02T00:04:05.912Z,1.26
2019-02-02T00:06:36.666Z,1.22
2019-02-02T00:09:07.527Z,1.19
2019-02-02T00:11:38.288Z,1.07
2019-02-02T00:14:09.061Z,1.04
2019-02-02T00:16:39.821Z,0.95
2019-02-02T00:19:10.588Z,1.05
2019-02-02T00:21:41.347Z,0.91
2019-02-02T00:24:12.119Z,0.84
2019-02-02T00:26:42.876Z,0.74
2019-02-02T00:29:13.648Z,0.72
2019-02-02T00:31:44.405Z,0.69
2019-02-02T00:34:15.176Z,0.67
2019-02-02T00:36:45.955Z,0.71
2019-02-02T00:39:16.715Z,0.74
2019-02-02T00:41:47.470Z,0.80
2019-02-02T00:44:18.239Z,0.79
2019-02-02T00:46:49.014Z,0.67
2019-02-02T00:49:19.784Z,0.59
2019-02-02T00:51:50.538Z,0.56
2019-02-02T00:54:21.310Z,0.44
2019-02-02T00:56:52.108Z,0.35
2019-02-02T00:59:22.920Z,0.19
2019-02-02T01:01:53.690Z,0.03
2019-02-02T01:04:24.541Z,-0.07
2019-02-02T01:06:55.301Z,-0.17
2019-02-02T01:09:26.320Z,-0.14
2019-02-02T01:11:57.136Z,-0.19
2019-02-02T01:14:27.918Z,-0.09
2019-02-02T01:16:58.696Z,-0.06
2019-02-02T01:19:29.471Z,0.03
2019-02-02T01:22:00.229Z,0.10
2019-02-02T01:24:31.098Z,0.11
2019-02-02T01:27:01.896Z,-0.04
2019-02-02T01:29:32.683Z,-0.16
2019-02-02T01:32:03.737Z,-0.23
2019-02-02T01:34:34.507Z,-0.19
2019-02-02T01:37:05.276Z,-0.18
2019-02-02T01:39:36.144Z,-0.17
2019-02-02T01:42:06.964Z,-0.20
2019-02-02T01:44:37.749Z,0.00
2019-02-02T01:47:08.498Z,0.03
2019-02-02T01:49:39.275Z,-0.04
2019-02-02T01:52:10.029Z,-0.12
2019-02-02T01:54:40.806Z,-0.07
2019-02-02T01:57:11.578Z,-0.09
2019-02-02T01:59:42.664Z,0.11
2019-02-02T02:02:13.426Z,0.19
2019-02-02T02:04:44.208Z,0.21
2019-02-02T02:07:14.968Z,0.17
2019-02-02T02:09:45.735Z,0.22
2019-02-02T02:12:16.493Z,0.45
2019-02-02T02:14:47.294Z,0.55
2019-02-02T02:17:18.047Z,0.56
2019-02-02T02:19:48.812Z,0.65
2019-02-02T02:22:19.584Z,0.72
2019-02-02T02:24:50.340Z,0.77
2019-02-02T02:27:21.112Z,0.82
2019-02-02T02:29:51.867Z,0.87
2019-02-02T02:32:22.648Z,1.05
2019-02-02T02:34:53.424Z,1.03
2019-02-02T02:37:24.189Z,0.89
2019-02-02T02:39:54.959Z,1.00
2019-02-02T02:42:25.738Z,0.90
2019-02-02T02:44:56.490Z,1.01
2019-02-02T02:47:27.251Z,0.95
2019-02-02T02:49:58.002Z,1.02
2019-02-02T02:52:28.784Z,0.93
2019-02-02T02:54:59.546Z,0.87
2019-02-02T02:57:30.325Z,0.76
2019-02-02T03:00:01.173Z,0.89
2019-02-02T03:02:31.967Z,0.72
2019-02-02T03:05:05.525Z,0.67
2019-02-02T03:07:36.301Z,0.71
2019-02-02T03:10:10.781Z,0.66
2019-02-02T03:12:41.554Z,0.60
2019-02-02T03:15:14.419Z,0.55
2019-02-02T03:17:46.408Z,0.76
2019-02-02T03:20:17.263Z,0.78
2019-02-02T03:22:48.033Z,0.72
2019-02-02T03:25:25.388Z,0.72
2019-02-02T03:27:56.459Z,0.74
2019-02-02T03:30:27.761Z,0.78
2019-02-02T03:32:58.703Z,0.71
2019-02-02T03:35:29.449Z,0.80
2019-02-02T03:38:00.249Z,0.81
2019-02-02T03:40:30.976Z,0.78
2019-02-02T03:43:01.743Z,0.80
2019-02-02T03:45:32.498Z,0.93
2019-02-02T03:48:03.269Z,0.99
2019-02-02T03:50:34.130Z,0.75
2019-02-02T03:53:04.893Z,0.87
2019-02-02T03:55:35.665Z,0.88
2019-02-02T03:58:06.439Z,0.67
2019-02-02T04:00:37.193Z,0.85
2019-02-02T04:03:08.068Z,0.79
2019-02-02T04:05:39.024Z,0.81
2019-02-02T04:08:09.792Z,0.73
2019-02-02T04:10:40.551Z,0.72
2019-02-02T04:13:11.330Z,0.72
2019-02-02T04:15:42.189Z,0.69
2019-02-02T04:18:12.960Z,0.69
2019-02-02T04:20:43.738Z,0.61
2019-02-02T04:23:14.520Z,0.55
2019-02-02T04:25:45.283Z,0.59
2019-02-02T04:28:16.042Z,0.67
2019-02-02T04:30:46.803Z,0.69
2019-02-02T04:33:17.575Z,0.70
2019-02-02T04:35:48.333Z,0.69
2019-02-02T04:38:19.105Z,0.75
2019-02-02T04:40:49.861Z,0.72
2019-02-02T04:43:20.622Z,0.75
2019-02-02T04:45:51.370Z,0.76
2019-02-02T04:48:22.146Z,0.78
2019-02-02T04:50:52.898Z,0.75
2019-02-02T04:53:23.666Z,0.85
2019-02-02T04:55:54.433Z,0.79
2019-02-02T04:58:25.198Z,0.77
2019-02-02T05:00:55.950Z,0.76
2019-02-02T05:03:26.720Z,0.78
2019-02-02T05:05:57.483Z,0.83
2019-02-02T05:08:28.248Z,0.81
2019-02-02T05:10:59.014Z,0.83
2019-02-02T05:13:29.789Z,0.73
2019-02-02T05:16:00.582Z,0.86
2019-02-02T05:18:31.327Z,0.89
2019-02-02T05:21:02.089Z,0.91
2019-02-02T05:23:32.854Z,0.86
2019-02-02T05:26:03.621Z,0.85
2019-02-02T05:28:34.393Z,0.82
2019-02-02T05:31:05.245Z,0.79
2019-02-02T05:33:36.025Z,0.74
2019-02-02T05:36:06.929Z,0.78
2019-02-02T05:38:37.696Z,0.76
2019-02-02T05:41:08.457Z,0.80
2019-02-02T05:43:39.256Z,0.83
2019-02-02T05:46:10.020Z,0.74
2019-02-02T05:48:40.780Z,0.73
2019-02-02T05:51:11.546Z,0.82
2019-02-02T05:53:42.331Z,0.85
2019-02-02T05:56:13.099Z,0.82
2019-02-02T05:58:44.104Z,0.79
2019-02-02T06:01:16.481Z,0.73
2019-02-02T06:03:47.254Z,0.85
2019-02-02T06:06:18.027Z,0.84
2019-02-02T06:08:48.782Z,0.94
2019-02-02T06:11:19.545Z,0.95
2019-02-02T06:13:50.306Z,0.94
2019-02-02T06:16:21.081Z,1.04
2019-02-02T06:18:51.903Z,0.93
2019-02-02T06:21:22.693Z,0.95
2019-02-02T06:23:53.474Z,0.92
2019-02-02T06:26:24.244Z,0.92
2019-02-02T06:28:54.993Z,1.02
2019-02-02T06:31:25.763Z,1.10
2019-02-02T06:33:56.540Z,1.05
2019-02-02T06:36:27.319Z,1.12
2019-02-02T06:38:58.086Z,1.06
2019-02-02T06:41:28.854Z,1.10
2019-02-02T06:43:59.608Z,1.15
2019-02-02T06:46:30.389Z,1.24
2019-02-02T06:49:01.647Z,1.23
2019-02-02T06:51:32.617Z,1.13
2019-02-02T06:54:03.488Z,1.08
2019-02-02T06:56:34.263Z,1.12
2019-02-02T06:59:05.127Z,1.08
2019-02-02T07:01:35.904Z,1.12
2019-02-02T07:04:06.667Z,1.16
2019-02-02T07:06:37.449Z,1.15
2019-02-02T07:09:08.204Z,1.06
2019-02-02T07:11:38.966Z,1.12
2019-02-02T07:14:09.725Z,1.09
2019-02-02T07:16:40.529Z,1.23
2019-02-02T07:19:11.313Z,1.33
2019-02-02T07:21:42.086Z,1.28
2019-02-02T07:24:12.851Z,1.25
2019-02-02T07:26:43.614Z,1.24
2019-02-02T07:29:14.377Z,1.21
2019-02-02T07:31:45.161Z,1.22
2019-02-02T07:34:15.915Z,1.26
2019-02-02T07:36:46.693Z,1.20
2019-02-02T07:39:17.465Z,1.16
2019-02-02T07:41:48.267Z,1.10
2019-02-02T07:44:19.005Z,1.10
2019-02-02T07:46:49.776Z,1.02
2019-02-02T07:49:20.545Z,1.15
2019-02-02T07:51:51.305Z,1.22
2019-02-02T07:54:22.064Z,1.17
2019-02-02T07:56:52.852Z,1.22
2019-02-02T07:59:23.624Z,1.15
2019-02-02T08:01:54.391Z,1.11
2019-02-02T08:04:25.150Z,1.17
2019-02-02T08:06:55.928Z,1.21
2019-02-02T08:09:26.680Z,1.17
2019-02-02T08:11:57.457Z,1.24
2019-02-02T08:14:28.209Z,1.25
2019-02-02T08:16:59.018Z,1.16
2019-02-02T08:19:29.776Z,1.20
2019-02-02T08:22:00.557Z,1.27
2019-02-02T08:24:31.514Z,1.27
2019-02-02T08:27:02.497Z,1.20
2019-02-02T08:29:33.264Z,1.29
2019-02-02T08:32:04.132Z,1.29
2019-02-02T08:34:34.904Z,1.33
2019-02-02T08:37:05.672Z,1.39
2019-02-02T08:39:36.432Z,1.41
2019-02-02T08:42:07.208Z,1.48
2019-02-02T08:44:37.959Z,1.61
2019-02-02T08:47:08.723Z,1.69
2019-02-02T08:49:40.434Z,1.68
2019-02-02T08:52:11.323Z,1.63
2019-02-02T08:54:42.136Z,1.70
2019-02-02T08:57:13.035Z,1.83
2019-02-02T08:59:43.791Z,1.76
2019-02-02T09:02:14.593Z,1.90
2019-02-02T09:04:45.401Z,1.74
2019-02-02T09:07:16.427Z,1.68
2019-02-02T09:09:47.200Z,1.59
2019-02-02T09:12:17.972Z,1.57
2019-02-02T09:14:48.747Z,1.67
2019-02-02T09:17:19.519Z,1.55
2019-02-02T09:19:50.322Z,1.61
2019-02-02T09:22:21.075Z,1.58
2019-02-02T09:24:52.112Z,1.59
2019-02-02T09:27:22.930Z,1.54
2019-02-02T09:29:53.710Z,1.62
2019-02-02T09:32:24.457Z,1.64
2019-02-02T09:34:55.253Z,1.31
2019-02-02T09:37:25.998Z,1.67
2019-02-02T09:39:56.770Z,1.70
2019-02-02T09:42:27.530Z,1.70
2019-02-02T09:44:58.308Z,1.76
2019-02-02T09:47:29.078Z,1.72
2019-02-02T09:49:59.846Z,1.71
2019-02-02T09:52:30.620Z,1.73
2019-02-02T09:55:01.483Z,1.76
2019-02-02T09:57:32.666Z,1.69
2019-02-02T10:00:13.127Z,1.73
2019-02-02T10:02:46.040Z,1.80
2019-02-02T10:05:19.113Z,1.82
2019-02-02T10:07:49.542Z,1.85
2019-02-02T10:10:23.224Z,1.83
2019-02-02T10:12:54.083Z,1.90
2019-02-02T10:15:24.855Z,1.92
2019-02-02T10:17:55.715Z,1.90
2019-02-02T10:20:29.190Z,1.85
2019-02-02T10:23:00.156Z,1.79
2019-02-02T10:25:30.948Z,1.87
2019-02-02T10:28:01.807Z,1.77
2019-02-02T10:30:37.854Z,1.88
2019-02-02T10:33:08.821Z,1.83
2019-02-02T10:35:39.606Z,2.02
2019-02-02T10:38:10.364Z,2.12
2019-02-02T10:40:41.134Z,2.09
2019-02-02T10:43:11.922Z,2.17
2019-02-02T10:45:42.678Z,2.13
2019-02-02T10:48:13.443Z,2.16
2019-02-02T10:50:44.216Z,2.25
2019-02-02T10:53:15.068Z,2.24
2019-02-02T10:55:45.847Z,2.30
2019-02-02T10:58:16.625Z,2.15
2019-02-02T11:00:47.402Z,2.23
2019-02-02T11:03:18.193Z,2.24
2019-02-02T11:05:49.052Z,2.25
2019-02-02T11:08:19.962Z,2.09
2019-02-02T11:10:50.817Z,2.11
2019-02-02T11:13:21.575Z,1.96
2019-02-02T11:15:52.446Z,2.03
2019-02-02T11:18:23.188Z,1.49
2019-02-02T11:20:53.921Z,1.83
2019-02-02T11:23:24.824Z,1.83
2019-02-02T11:25:55.569Z,1.80
2019-02-02T11:28:26.319Z,1.79
2019-02-02T11:30:57.122Z,1.54
2019-02-02T11:33:27.901Z,1.94
2019-02-02T11:35:58.667Z,2.07
2019-02-02T11:38:29.430Z,2.37
2019-02-02T11:41:00.195Z,2.53
2019-02-02T11:43:31.036Z,3.05
2019-02-02T11:46:02.643Z,3.62
2019-02-02T11:48:33.370Z,4.05
2019-02-02T11:51:04.148Z,3.98
2019-02-02T11:53:37.350Z,3.68
2019-02-02T11:56:07.625Z,3.77
2019-02-02T11:58:38.406Z,3.98
2019-02-02T12:01:09.308Z,4.11
2019-02-02T12:03:40.106Z,4.15
2019-02-02T12:06:10.896Z,4.67
2019-02-02T12:08:41.796Z,4.86
2019-02-02T12:11:12.574Z,5.23
2019-02-02T12:13:43.483Z,5.11
2019-02-02T12:16:14.279Z,4.89
2019-02-02T12:18:45.220Z,5.18
2019-02-02T12:21:16.034Z,5.54
2019-02-02T12:23:46.812Z,5.49
2019-02-02T12:26:17.583Z,5.72
2019-02-02T12:28:48.485Z,5.02
2019-02-02T12:31:19.404Z,5.08
2019-02-02T12:33:50.658Z,4.84
2019-02-02T12:36:21.688Z,4.57
2019-02-02T12:38:52.576Z,4.92
2019-02-02T12:41:23.538Z,4.84
2019-02-02T12:43:54.528Z,4.76
2019-02-02T12:46:25.432Z,4.75
2019-02-02T12:48:56.230Z,5.01
2019-02-02T12:51:26.999Z,4.81
2019-02-02T12:53:57.810Z,4.58
2019-02-02T12:56:28.589Z,4.51
2019-02-02T12:58:59.474Z,4.69
2019-02-02T13:01:30.263Z,4.37
2019-02-02T13:04:05.139Z,4.68
2019-02-02T13:06:33.842Z,4.59
2019-02-02T13:09:05.948Z,4.44
2019-02-02T13:11:36.727Z,4.43
2019-02-02T13:14:07.671Z,4.29
2019-02-02T13:16:38.590Z,4.33
2019-02-02T13:19:09.363Z,4.48
2019-02-02T13:21:40.125Z,4.49
2019-02-02T13:24:10.903Z,4.54
2019-02-02T13:26:41.658Z,4.17
2019-02-02T13:29:12.447Z,3.98
2019-02-02T13:31:43.208Z,3.75
2019-02-02T13:34:13.984Z,3.92
2019-02-02T13:36:44.742Z,3.95
2019-02-02T13:39:15.525Z,4.29
2019-02-02T13:41:46.316Z,4.54
2019-02-02T13:44:17.254Z,4.62
2019-02-02T13:46:48.189Z,4.58
2019-02-02T13:49:19.443Z,4.46
2019-02-02T13:51:50.173Z,4.35
2019-02-02T13:54:20.959Z,4.34
2019-02-02T13:56:51.867Z,4.33
2019-02-02T13:59:22.669Z,4.30
2019-02-02T14:01:53.475Z,4.33
2019-02-02T14:04:25.111Z,4.13
2019-02-02T14:06:55.895Z,4.32
2019-02-02T14:09:26.679Z,4.04
2019-02-02T14:11:57.586Z,4.24
2019-02-02T14:14:28.381Z,3.79
2019-02-02T14:16:59.152Z,4.21
2019-02-02T14:19:30.049Z,4.03
2019-02-02T14:22:01.195Z,4.34
2019-02-02T14:24:32.008Z,4.17
2019-02-02T14:27:03.010Z,3.92
2019-02-02T14:29:33.911Z,4.21
2019-02-02T14:32:04.860Z,4.27
2019-02-02T14:34:40.301Z,4.15
2019-02-02T14:37:08.306Z,4.13
2019-02-02T14:39:39.094Z,4.46
2019-02-02T14:42:09.874Z,4.35
2019-02-02T14:44:40.783Z,4.29
2019-02-02T14:47:11.552Z,4.34
2019-02-02T14:49:42.480Z,4.44
2019-02-02T14:52:13.238Z,4.44
2019-02-02T14:54:44.032Z,4.39
2019-02-02T14:57:14.785Z,4.24
2019-02-02T14:59:45.711Z,4.31
2019-02-02T15:02:16.492Z,4.13
2019-02-02T15:04:47.284Z,3.90
2019-02-02T15:07:18.048Z,3.81
2019-02-02T15:09:49.108Z,3.57
2019-02-02T15:12:19.907Z,3.62
2019-02-02T15:14:50.693Z,3.68
2019-02-02T15:17:21.510Z,3.65
2019-02-02T15:19:52.297Z,3.67
2019-02-02T15:22:23.070Z,3.62
2019-02-02T15:24:53.843Z,3.62
2019-02-02T15:27:24.630Z,3.36
2019-02-02T15:29:55.403Z,3.43
2019-02-02T15:32:28.315Z,3.50
2019-02-02T15:34:58.873Z,3.48
2019-02-02T15:37:29.669Z,3.55
2019-02-02T15:40:00.437Z,3.52
2019-02-02T15:42:31.225Z,3.47
2019-02-02T15:45:05.395Z,3.41
2019-02-02T15:47:36.196Z,3.45
2019-02-02T15:50:09.856Z,3.49
2019-02-02T15:52:40.790Z,3.42
2019-02-02T15:55:13.952Z,3.40
2019-02-02T15:57:44.779Z,3.36
2019-02-02T16:00:21.481Z,3.45
2019-02-02T16:02:52.362Z,3.45
2019-02-02T16:05:24.160Z,3.33
2019-02-02T16:07:56.744Z,3.29
2019-02-02T16:10:31.323Z,3.22
2019-02-02T16:13:02.104Z,3.32
2019-02-02T16:15:34.235Z,3.18
2019-02-02T16:18:05.762Z,3.29
2019-02-02T16:20:41.759Z,3.15
2019-02-02T16:23:11.703Z,3.15
2019-02-02T16:25:42.561Z,3.11
2019-02-02T16:28:13.307Z,3.08
2019-02-02T16:30:44.101Z,3.22
2019-02-02T16:33:14.904Z,3.10
2019-02-02T16:35:45.826Z,3.10
2019-02-02T16:38:16.602Z,3.13
2019-02-02T16:40:47.392Z,3.09
2019-02-02T16:43:18.293Z,3.20
2019-02-02T16:45:49.224Z,3.10
2019-02-02T16:48:20.006Z,2.95
2019-02-02T16:50:51.281Z,2.81
2019-02-02T16:53:22.344Z,2.73
2019-02-02T16:55:53.238Z,2.82
2019-02-02T16:58:24.122Z,2.72
2019-02-02T17:00:54.905Z,2.72
2019-02-02T17:03:25.697Z,2.73
2019-02-02T17:05:56.515Z,2.64
2019-02-02T17:08:27.433Z,2.65
2019-02-02T17:10:58.332Z,2.63
2019-02-02T17:13:29.126Z,2.59
2019-02-02T17:16:00.072Z,2.56
2019-02-02T17:18:31.011Z,2.59
2019-02-02T17:21:02.719Z,2.53
2019-02-02T17:23:34.654Z,2.55
2019-02-02T17:26:05.713Z,2.56
2019-02-02T17:28:36.620Z,2.58
2019-02-02T17:31:07.839Z,2.68
2019-02-02T17:33:38.786Z,2.63
2019-02-02T17:36:10.022Z,2.69
2019-02-02T17:38:40.970Z,2.59
2019-02-02T17:41:12.819Z,2.65
2019-02-02T17:43:43.904Z,2.69
2019-02-02T17:46:14.694Z,2.77
2019-02-02T17:48:45.477Z,2.65
2019-02-02T17:51:16.397Z,2.70
2019-02-02T17:53:47.356Z,2.64
2019-02-02T17:56:18.353Z,2.72
2019-02-02T17:58:49.219Z,2.78
2019-02-02T18:01:19.986Z,2.86
2019-02-02T18:03:50.907Z,2.80
2019-02-02T18:06:21.825Z,2.79
2019-02-02T18:08:52.753Z,2.86
2019-02-02T18:11:23.833Z,2.91
2019-02-02T18:13:54.919Z,3.04
2019-02-02T18:16:25.854Z,3.17
2019-02-02T18:18:56.815Z,3.11
2019-02-02T18:21:27.870Z,3.11
2019-02-02T18:23:58.660Z,3.05
2019-02-02T18:26:29.579Z,3.06
2019-02-02T18:29:00.551Z,2.79
2019-02-02T18:31:31.650Z,2.59
2019-02-02T18:34:02.757Z,2.57
2019-02-02T18:36:33.710Z,2.72
2019-02-02T18:39:06.483Z,2.76
2019-02-02T18:41:37.600Z,2.79
2019-02-02T18:44:08.402Z,2.87
2019-02-02T18:46:39.497Z,2.90
2019-02-02T18:49:10.573Z,3.02
2019-02-02T18:51:41.822Z,2.97
2019-02-02T18:54:12.938Z,2.71
2019-02-02T18:56:44.037Z,3.11
2019-02-02T18:59:15.120Z,2.94
2019-02-02T19:01:46.205Z,2.95
2019-02-02T19:04:17.827Z,2.98
2019-02-02T19:06:48.922Z,3.02
2019-02-02T19:09:20.123Z,3.06
2019-02-02T19:11:51.548Z,3.06
2019-02-02T19:14:22.772Z,3.12
2019-02-02T19:17:01.056Z,3.04
2019-02-02T19:19:27.423Z,3.05
2019-02-02T19:21:58.822Z,3.01
2019-02-02T19:24:30.433Z,3.05
2019-02-02T19:27:02.001Z,3.15
2019-02-02T19:29:33.454Z,3.18
2019-02-02T19:32:05.330Z,3.20
2019-02-02T19:34:36.892Z,3.00
2019-02-02T19:37:08.618Z,3.03
2019-02-02T19:39:40.105Z,3.01
2019-02-02T19:42:11.716Z,3.00
2019-02-02T19:44:43.096Z,2.99
2019-02-02T19:47:16.343Z,2.99
2019-02-02T19:49:48.242Z,2.97
2019-02-02T19:52:19.923Z,2.95
2019-02-02T19:54:51.730Z,2.99
2019-02-02T19:57:23.390Z,2.94
2019-02-02T19:59:55.071Z,2.95
2019-02-02T20:02:26.706Z,2.90
2019-02-02T20:04:58.688Z,2.97
2019-02-02T20:07:33.314Z,2.98
2019-02-02T20:10:08.910Z,2.90
2019-02-02T20:12:40.914Z,2.92
2019-02-02T20:15:15.346Z,2.93
2019-02-02T20:17:46.888Z,2.78
2019-02-02T20:20:21.456Z,2.81
2019-02-02T20:22:53.465Z,2.88
2019-02-02T20:25:26.281Z,2.81
2019-02-02T20:27:57.880Z,2.73
2019-02-02T20:30:31.417Z,2.74
2019-02-02T20:33:04.007Z,2.78
2019-02-02T20:35:42.077Z,2.70
2019-02-02T20:38:09.752Z,2.69
2019-02-02T20:40:41.533Z,2.54
2019-02-02T20:43:13.385Z,2.50
2019-02-02T20:45:44.974Z,2.51
2019-02-02T20:48:16.883Z,2.44
2019-02-02T20:50:48.816Z,2.13
2019-02-02T20:53:21.213Z,2.46
2019-02-02T20:55:53.011Z,2.01
2019-02-02T20:58:24.635Z,2.27
2019-02-02T21:00:56.311Z,2.31
2019-02-02T21:03:27.959Z,2.24
2019-02-02T21:05:59.609Z,2.34
2019-02-02T21:08:31.506Z,2.41
2019-02-02T21:11:03.227Z,2.35
2019-02-02T21:13:34.888Z,2.38
2019-02-02T21:16:07.011Z,2.34
2019-02-02T21:18:38.612Z,2.44
2019-02-02T21:21:10.256Z,2.40
2019-02-02T21:23:41.711Z,2.43
2019-02-02T21:26:13.362Z,2.34
2019-02-02T21:28:50.347Z,2.34
2019-02-02T21:31:18.005Z,2.29
2019-02-02T21:33:49.574Z,2.31
2019-02-02T21:36:20.774Z,2.33
2019-02-02T21:38:51.990Z,2.25
2019-02-02T21:41:23.417Z,2.19
2019-02-02T21:43:54.615Z,2.18
2019-02-02T21:46:25.801Z,2.22
2019-02-02T21:48:56.993Z,2.19
2019-02-02T21:51:28.449Z,2.13
2019-02-02T21:53:59.538Z,2.28
2019-02-02T21:56:30.625Z,2.24
2019-02-02T21:59:01.714Z,2.28
2019-02-02T22:01:33.188Z,2.22
2019-02-02T22:04:04.379Z,2.20
2019-02-02T22:06:35.441Z,2.24
2019-02-02T22:09:06.991Z,2.22
2019-02-02T22:11:37.911Z,2.17
2019-02-02T22:14:09.008Z,2.18
2019-02-02T22:16:39.936Z,2.16
2019-02-02T22:19:11.029Z,1.96
2019-02-02T22:21:41.919Z,2.13
2019-02-02T22:24:12.742Z,2.13
2019-02-02T22:26:43.738Z,2.08
2019-02-02T22:29:14.515Z,2.11
2019-02-02T22:31:45.420Z,2.09
2019-02-02T22:34:16.182Z,2.03
2019-02-02T22:36:46.980Z,2.05
2019-02-02T22:39:17.799Z,2.00
2019-02-02T22:41:48.594Z,2.04
2019-02-02T22:44:19.418Z,2.06
2019-02-02T22:46:50.198Z,2.04
2019-02-02T22:49:21.392Z,2.02
2019-02-02T22:51:52.168Z,2.10
2019-02-02T22:54:22.970Z,2.00
2019-02-02T22:56:53.804Z,2.04
2019-02-02T22:59:24.644Z,1.99
2019-02-02T23:01:57.589Z,2.02
2019-02-02T23:04:32.328Z,1.98
2019-02-02T23:07:06.912Z,2.01
2019-02-02T23:09:47.528Z,2.00
2019-02-02T23:12:31.206Z,2.02
2019-02-02T23:15:17.814Z,2.01
2019-02-02T23:17:48.799Z,1.95
2019-02-02T23:20:19.588Z,1.99
2019-02-02T23:22:50.367Z,1.98
2019-02-02T23:25:21.151Z,1.95
2019-02-02T23:27:51.919Z,1.87
2019-02-02T23:30:22.707Z,1.91
2019-02-02T23:32:53.471Z,1.90
2019-02-02T23:35:24.248Z,1.91
2019-02-02T23:37:55.026Z,1.97
2019-02-02T23:40:25.817Z,1.95
2019-02-02T23:42:56.586Z,1.97
2019-02-02T23:45:27.359Z,1.95
2019-02-02T23:47:58.146Z,1.92
2019-02-02T23:50:28.913Z,1.98
2019-02-02T23:52:59.795Z,1.90
2019-02-02T23:55:30.570Z,1.86
2019-02-02T23:58:01.421Z,1.83
